createdAt,value
2023-02-14T00:01:48.785Z,17.00
2023-02-14T00:04:17.335Z,17.20
2023-02-14T00:06:44.737Z,18.10
2023-02-14T00:09:14.589Z,18.00
2023-02-14T00:11:41.430Z,18.60
2023-02-14T00:14:08.874Z,16.80
2023-02-14T00:16:35.402Z,18.40
2023-02-14T00:19:02.182Z,17.20
2023-02-14T00:21:29.137Z,16.20
2023-02-14T00:23:55.742Z,14.40
2023-02-14T00:26:22.197Z,14.60
2023-02-14T00:28:48.718Z,14.60
2023-02-14T00:31:15.651Z,14.00
2023-02-14T00:33:42.274Z,12.20
2023-02-14T00:36:10.962Z,11.80
2023-02-14T00:38:37.545Z,12.60
2023-02-14T00:41:04.288Z,13.50
2023-02-14T00:43:31.136Z,13.60
2023-02-14T00:45:57.777Z,13.10
2023-02-14T00:48:24.538Z,12.40
2023-02-14T00:50:51.137Z,12.10
2023-02-14T00:53:17.793Z,12.50
2023-02-14T00:55:47.044Z,14.20
2023-02-14T00:58:13.825Z,12.30
2023-02-14T01:00:40.661Z,12.50
2023-02-14T01:03:07.346Z,11.40
2023-02-14T01:05:34.186Z,11.90
2023-02-14T01:08:00.821Z,11.70
2023-02-14T01:10:27.357Z,12.70
2023-02-14T01:12:53.910Z,12.00
2023-02-14T01:15:20.451Z,10.90
2023-02-14T01:17:47.028Z,11.30
2023-02-14T01:20:13.668Z,12.60
2023-02-14T01:22:40.694Z,12.70
2023-02-14T01:25:07.600Z,12.30
2023-02-14T01:27:34.075Z,11.50
2023-02-14T01:30:00.736Z,11.50
2023-02-14T01:32:31.436Z,12.30
2023-02-14T01:34:58.100Z,12.00
2023-02-14T01:37:24.700Z,12.60
2023-02-14T01:39:51.306Z,12.10
2023-02-14T01:42:17.819Z,13.20
2023-02-14T01:44:47.567Z,11.70
2023-02-14T01:47:14.804Z,12.10
2023-02-14T01:49:52.711Z,13.70
2023-02-14T01:52:28.980Z,12.60
2023-02-14T01:55:00.883Z,12.30
2023-02-14T01:57:36.118Z,11.90
2023-02-14T02:00:04.877Z,12.50
2023-02-14T02:02:31.480Z,14.80
2023-02-14T02:04:58.475Z,14.20
2023-02-14T02:07:27.450Z,13.50
2023-02-14T02:09:58.625Z,13.80
2023-02-14T02:12:25.270Z,14.60
2023-02-14T02:14:56.046Z,14.90
2023-02-14T02:17:46.921Z,14.00
2023-02-14T02:20:19.607Z,14.60
2023-02-14T02:23:24.033Z,14.60
2023-02-14T02:26:15.759Z,14.40
2023-02-14T02:31:49.195Z,14.30
2023-02-14T02:34:28.196Z,15.90
2023-02-14T02:36:54.611Z,15.40
2023-02-14T02:40:00.180Z,16.00
2023-02-14T02:43:00.480Z,16.10
2023-02-14T02:45:53.011Z,16.10
2023-02-14T02:48:23.525Z,16.60
2023-02-14T02:50:56.043Z,16.90
2023-02-14T02:53:58.203Z,16.70
2023-02-14T02:56:30.322Z,17.50
2023-02-14T02:59:03.063Z,16.80
2023-02-14T03:01:34.456Z,17.40
2023-02-14T03:06:31.500Z,16.80
2023-02-14T03:08:58.037Z,17.00
2023-02-14T03:11:25.860Z,18.20
2023-02-14T03:14:05.973Z,17.50
2023-02-14T03:16:50.932Z,17.50
2023-02-14T03:19:32.951Z,16.70
2023-02-14T03:22:17.647Z,16.80
2023-02-14T03:24:49.373Z,16.90
2023-02-14T03:27:27.276Z,16.30
2023-02-14T03:30:05.916Z,16.90
2023-02-14T03:32:55.893Z,16.60
2023-02-14T03:35:25.063Z,17.10
2023-02-14T03:37:55.271Z,17.00
2023-02-14T03:40:35.535Z,16.30
2023-02-14T03:43:09.032Z,18.00
2023-02-14T03:45:44.066Z,16.30
2023-02-14T03:48:14.158Z,16.40
2023-02-14T03:50:44.515Z,16.10
2023-02-14T03:53:15.209Z,16.40
2023-02-14T03:55:51.329Z,16.90
2023-02-14T03:58:26.764Z,15.80
2023-02-14T04:01:00.736Z,16.60
2023-02-14T04:03:29.955Z,15.20
2023-02-14T04:06:00.524Z,16.40
2023-02-14T04:08:28.959Z,16.10
2023-02-14T04:11:00.811Z,15.70
2023-02-14T04:13:28.723Z,15.50
2023-02-14T04:15:55.325Z,16.40
2023-02-14T04:18:22.117Z,16.60
2023-02-14T04:20:48.861Z,16.50
2023-02-14T04:23:15.398Z,16.30
2023-02-14T04:25:41.850Z,15.90
2023-02-14T04:28:09.095Z,17.20
2023-02-14T04:30:35.634Z,17.80
2023-02-14T04:33:03.410Z,16.20
2023-02-14T04:35:30.548Z,19.30
2023-02-14T04:37:57.234Z,18.50
2023-02-14T04:40:23.935Z,17.90
2023-02-14T04:42:50.690Z,18.40
2023-02-14T04:45:17.323Z,17.60
2023-02-14T04:47:43.874Z,17.20
2023-02-14T04:50:11.029Z,16.90
2023-02-14T04:52:37.516Z,16.20
2023-02-14T04:55:05.392Z,17.00
2023-02-14T04:57:32.106Z,16.20
2023-02-14T04:59:58.649Z,16.40
2023-02-14T05:02:25.198Z,15.30
2023-02-14T05:04:52.117Z,16.00
2023-02-14T05:07:18.756Z,15.20
2023-02-14T05:09:45.197Z,16.70
2023-02-14T05:12:11.819Z,15.70
2023-02-14T05:14:38.231Z,14.80
2023-02-14T05:17:05.317Z,15.20
2023-02-14T05:19:31.873Z,15.60
2023-02-14T05:21:58.371Z,14.50
2023-02-14T05:24:24.942Z,15.50
2023-02-14T05:26:51.583Z,14.50
2023-02-14T05:29:18.586Z,14.70
2023-02-14T05:31:45.077Z,14.20
2023-02-14T05:34:11.823Z,13.30
2023-02-14T05:36:38.568Z,13.40
2023-02-14T05:39:05.307Z,13.00
2023-02-14T05:41:31.814Z,13.70
2023-02-14T05:43:58.271Z,15.00
2023-02-14T05:46:24.756Z,13.60
2023-02-14T05:48:51.472Z,14.30
2023-02-14T05:51:18.017Z,15.40
2023-02-14T05:53:44.558Z,14.90
2023-02-14T05:56:11.057Z,13.60
2023-02-14T05:58:37.538Z,14.20
2023-02-14T06:01:04.197Z,14.80
2023-02-14T06:03:30.738Z,13.90
2023-02-14T06:05:57.216Z,13.20
2023-02-14T06:08:23.826Z,16.30
2023-02-14T06:10:50.333Z,11.70
2023-02-14T06:13:16.901Z,12.80
2023-02-14T06:15:43.435Z,12.20
2023-02-14T06:18:09.962Z,13.00
2023-02-14T06:20:36.888Z,11.10
2023-02-14T06:23:03.794Z,10.40
2023-02-14T06:25:30.731Z,10.70
2023-02-14T06:27:58.484Z,10.40
2023-02-14T06:30:26.351Z,10.30
2023-02-14T06:32:53.305Z,10.30
2023-02-14T06:35:20.024Z,10.10
2023-02-14T06:37:46.687Z,10.40
2023-02-14T06:40:14.216Z,11.20
2023-02-14T06:42:40.792Z,10.30
2023-02-14T06:45:07.863Z,10.50
2023-02-14T06:47:35.230Z,10.70
2023-02-14T06:50:02.574Z,11.40
2023-02-14T06:52:29.108Z,11.70
2023-02-14T06:54:55.547Z,11.20
2023-02-14T06:57:21.942Z,11.70
2023-02-14T06:59:48.397Z,9.90
2023-02-14T07:02:15.222Z,10.80
2023-02-14T07:04:41.769Z,9.20
2023-02-14T07:07:08.408Z,10.00
2023-02-14T07:09:34.886Z,10.70
2023-02-14T07:12:01.444Z,10.80
2023-02-14T07:14:27.976Z,9.60
2023-02-14T07:16:54.626Z,9.70
2023-02-14T07:19:21.180Z,10.10
2023-02-14T07:21:47.726Z,9.40
2023-02-14T07:24:14.462Z,9.80
2023-02-14T07:26:40.948Z,10.10
2023-02-14T07:29:07.637Z,10.10
2023-02-14T07:31:34.532Z,10.80
2023-02-14T07:34:01.133Z,10.60
2023-02-14T07:36:28.476Z,9.90
2023-02-14T07:38:58.104Z,9.80
2023-02-14T07:41:24.629Z,9.80
2023-02-14T07:43:51.040Z,10.30
2023-02-14T07:46:17.657Z,10.30
2023-02-14T07:48:44.337Z,9.50
2023-02-14T07:51:10.773Z,10.40
2023-02-14T07:53:37.467Z,10.90
2023-02-14T07:56:04.001Z,10.20
2023-02-14T07:58:30.504Z,10.50
2023-02-14T08:00:57.110Z,11.70
2023-02-14T08:03:23.799Z,11.70
2023-02-14T08:05:50.327Z,12.10
2023-02-14T08:08:16.982Z,10.90
2023-02-14T08:10:43.441Z,10.90
2023-02-14T08:13:10.047Z,11.90
2023-02-14T08:15:36.583Z,11.10
2023-02-14T08:18:03.091Z,11.10
2023-02-14T08:20:29.938Z,11.30
2023-02-14T08:22:56.716Z,12.00
2023-02-14T08:25:23.505Z,12.10
2023-02-14T08:27:50.206Z,12.40
2023-02-14T08:30:17.273Z,16.20
2023-02-14T08:32:43.932Z,21.40
2023-02-14T08:35:10.444Z,15.80
2023-02-14T08:37:36.984Z,16.00
2023-02-14T08:40:03.662Z,17.20
2023-02-14T08:42:30.159Z,15.70
2023-02-14T08:44:56.687Z,13.60
2023-02-14T08:47:23.252Z,12.50
2023-02-14T08:49:49.982Z,11.60
2023-02-14T08:52:16.762Z,11.20
2023-02-14T08:54:43.469Z,11.00
2023-02-14T08:57:09.941Z,11.70
2023-02-14T08:59:36.553Z,11.20
2023-02-14T09:02:03.041Z,12.30
2023-02-14T09:04:29.678Z,14.50
2023-02-14T09:06:56.306Z,15.70
2023-02-14T09:09:22.822Z,12.70
2023-02-14T09:11:49.585Z,12.50
2023-02-14T09:14:16.408Z,12.10
2023-02-14T09:16:43.027Z,11.70
2023-02-14T09:19:09.755Z,11.50
2023-02-14T09:21:36.468Z,12.10
2023-02-14T09:24:04.009Z,12.40
2023-02-14T09:26:30.478Z,12.20
2023-02-14T09:28:57.297Z,13.40
2023-02-14T09:31:25.325Z,12.30
2023-02-14T09:33:52.158Z,12.60
2023-02-14T09:36:18.863Z,12.90
2023-02-14T09:38:45.699Z,13.20
2023-02-14T09:41:28.365Z,14.10
2023-02-14T09:44:07.773Z,14.40
2023-02-14T09:46:45.772Z,14.80
2023-02-14T09:49:16.852Z,13.00
2023-02-14T09:51:51.385Z,11.80
2023-02-14T09:54:28.233Z,12.40
2023-02-14T09:57:03.474Z,13.10
2023-02-14T09:59:44.231Z,12.20
2023-02-14T10:02:32.862Z,13.70
2023-02-14T10:05:23.084Z,16.90
2023-02-14T10:07:57.818Z,11.20
2023-02-14T10:10:40.644Z,13.20
2023-02-14T10:13:29.876Z,14.50
2023-02-14T10:16:04.880Z,12.00
2023-02-14T10:18:46.571Z,14.20
2023-02-14T10:21:22.679Z,14.60
2023-02-14T10:24:41.802Z,16.70
2023-02-14T10:27:32.714Z,18.50
2023-02-14T10:29:59.656Z,22.00
2023-02-14T10:32:37.794Z,14.50
2023-02-14T10:35:24.403Z,14.10
2023-02-14T10:38:29.623Z,17.70
2023-02-14T10:41:11.455Z,16.50
2023-02-14T10:43:58.599Z,15.10
2023-02-14T10:46:31.008Z,12.30
2023-02-14T10:49:13.238Z,13.40
2023-02-14T10:51:57.512Z,14.20
2023-02-14T10:54:34.277Z,14.10
2023-02-14T10:57:04.624Z,15.30
2023-02-14T10:59:35.420Z,16.40
2023-02-14T11:02:02.297Z,15.10
2023-02-14T11:04:31.661Z,14.60
2023-02-14T11:06:58.564Z,13.30
2023-02-14T11:09:25.094Z,14.80
2023-02-14T11:11:59.014Z,13.40
2023-02-14T11:14:32.104Z,13.00
2023-02-14T11:17:00.692Z,11.40
2023-02-14T11:19:28.870Z,13.40
2023-02-14T11:21:57.967Z,11.60
2023-02-14T11:24:33.663Z,11.40
2023-02-14T11:27:19.155Z,12.10
2023-02-14T11:29:48.918Z,12.60
2023-02-14T11:32:21.463Z,11.70
2023-02-14T11:34:53.160Z,11.60
2023-02-14T11:37:22.549Z,12.10
2023-02-14T11:39:50.639Z,11.00
2023-02-14T11:42:43.713Z,9.90
2023-02-14T11:45:47.972Z,11.50
2023-02-14T11:48:37.222Z,11.40
2023-02-14T11:51:10.625Z,9.90
2023-02-14T11:53:49.096Z,12.40
2023-02-14T11:56:17.650Z,9.30
2023-02-14T11:58:57.886Z,10.30
2023-02-14T12:01:33.527Z,12.00
2023-02-14T12:04:05.176Z,10.80
2023-02-14T12:06:35.804Z,10.40
2023-02-14T12:09:13.584Z,8.60
2023-02-14T12:11:40.070Z,10.30
2023-02-14T12:14:21.205Z,8.10
2023-02-14T12:16:56.244Z,9.40
2023-02-14T12:19:58.472Z,12.30
2023-02-14T12:22:55.625Z,11.90
2023-02-14T12:25:34.130Z,11.70
2023-02-14T12:28:09.918Z,11.70
2023-02-14T12:30:36.412Z,11.30
2023-02-14T12:33:02.975Z,9.00
2023-02-14T12:35:52.463Z,9.40
2023-02-14T12:38:40.775Z,10.50
2023-02-14T12:41:25.334Z,10.30
2023-02-14T12:43:57.600Z,10.40
2023-02-14T12:46:45.430Z,11.70
2023-02-14T12:49:20.873Z,10.60
2023-02-14T12:52:39.962Z,12.80
2023-02-14T12:55:18.646Z,11.20
2023-02-14T12:58:05.775Z,12.70
2023-02-14T13:00:51.396Z,13.50
2023-02-14T13:03:17.924Z,14.40
2023-02-14T13:05:50.405Z,15.50
2023-02-14T13:08:35.626Z,15.90
2023-02-14T13:11:09.044Z,14.90
2023-02-14T13:14:03.160Z,15.20
2023-02-14T13:17:24.386Z,16.30
2023-02-14T13:20:05.740Z,15.50
2023-02-14T13:22:34.673Z,14.70
2023-02-14T13:25:06.465Z,15.10
2023-02-14T13:27:37.381Z,16.20
2023-02-14T13:30:14.027Z,15.00
2023-02-14T13:32:45.127Z,14.40
2023-02-14T13:35:18.401Z,15.50
2023-02-14T13:37:50.587Z,16.10
2023-02-14T13:40:23.673Z,14.70
2023-02-14T13:42:52.791Z,14.60
2023-02-14T13:45:31.617Z,16.20
2023-02-14T13:48:18.902Z,14.40
2023-02-14T13:51:07.578Z,13.80
2023-02-14T13:53:43.576Z,14.10
2023-02-14T13:56:13.196Z,14.40
2023-02-14T13:58:48.599Z,15.00
2023-02-14T14:01:45.944Z,15.50
2023-02-14T14:04:27.550Z,16.00
2023-02-14T14:07:00.139Z,16.50
2023-02-14T14:09:41.794Z,15.30
2023-02-14T14:12:26.871Z,15.60
2023-02-14T14:15:05.457Z,16.70
2023-02-14T14:17:35.932Z,15.10
2023-02-14T14:20:24.246Z,15.00
2023-02-14T14:22:54.324Z,15.30
2023-02-14T14:25:38.540Z,17.10
2023-02-14T14:28:12.523Z,16.00
2023-02-14T14:30:44.722Z,15.30
2023-02-14T14:33:15.902Z,17.10
2023-02-14T14:36:08.296Z,17.10
2023-02-14T14:38:46.313Z,16.40
2023-02-14T14:41:12.961Z,17.70
2023-02-14T14:43:40.756Z,17.50
2023-02-14T14:46:12.181Z,15.90
2023-02-14T14:51:28.512Z,15.60
2023-02-14T14:54:05.691Z,17.60
2023-02-14T14:56:35.512Z,15.60
2023-02-14T14:59:25.334Z,16.70
2023-02-14T15:01:51.978Z,17.60
2023-02-14T15:04:25.263Z,19.20
2023-02-14T15:06:52.459Z,22.10
2023-02-14T15:09:23.110Z,15.70
2023-02-14T15:11:53.174Z,15.20
2023-02-14T15:14:24.409Z,16.20
2023-02-14T15:16:58.025Z,15.40
2023-02-14T15:19:30.291Z,18.20
2023-02-14T15:21:57.446Z,18.50
2023-02-14T15:24:23.954Z,20.60
2023-02-14T15:26:53.373Z,18.20
2023-02-14T15:29:22.932Z,20.60
2023-02-14T15:31:50.316Z,18.00
2023-02-14T15:34:22.412Z,19.80
2023-02-14T15:36:50.228Z,18.50
2023-02-14T15:39:18.501Z,17.50
2023-02-14T15:41:45.856Z,18.40
2023-02-14T15:44:24.175Z,18.50
2023-02-14T15:47:01.359Z,20.00
2023-02-14T15:49:37.220Z,23.70
2023-02-14T15:52:06.327Z,23.40
2023-02-14T15:54:39.074Z,22.00
2023-02-14T15:57:17.218Z,20.80
2023-02-14T15:59:43.832Z,20.50
2023-02-14T16:02:29.178Z,19.60
2023-02-14T16:05:04.277Z,21.90
2023-02-14T16:07:30.918Z,23.20
2023-02-14T16:10:24.388Z,22.20
2023-02-14T16:13:13.870Z,25.00
2023-02-14T16:15:56.938Z,30.10
2023-02-14T16:18:46.990Z,27.80
2023-02-14T16:21:28.384Z,26.80
2023-02-14T16:24:07.210Z,24.60
2023-02-14T16:26:35.913Z,26.10
2023-02-14T16:29:03.795Z,25.80
2023-02-14T16:31:30.316Z,26.00
2023-02-14T16:33:57.067Z,26.70
2023-02-14T16:36:29.640Z,25.90
2023-02-14T16:38:57.435Z,29.40
2023-02-14T16:41:26.540Z,30.60
2023-02-14T16:43:54.486Z,46.20
2023-02-14T16:46:29.943Z,39.00
2023-02-14T16:48:56.656Z,37.50
2023-02-14T16:51:27.127Z,37.70
2023-02-14T16:53:57.027Z,45.20
2023-02-14T16:56:44.254Z,46.60
2023-02-14T16:59:10.901Z,43.60
2023-02-14T17:01:37.797Z,40.60
2023-02-14T17:04:04.694Z,42.40
2023-02-14T17:06:32.523Z,40.50
2023-02-14T17:09:02.946Z,39.80
2023-02-14T17:11:32.887Z,41.40
2023-02-14T17:13:59.458Z,47.40
2023-02-14T17:16:25.946Z,47.50
2023-02-14T17:18:52.931Z,45.10
2023-02-14T17:21:21.990Z,47.80
2023-02-14T17:23:48.802Z,36.90
2023-02-14T17:26:15.754Z,36.80
2023-02-14T17:28:42.173Z,37.60
2023-02-14T17:31:08.930Z,38.10
2023-02-14T17:33:36.169Z,41.70
2023-02-14T17:36:08.182Z,38.70
2023-02-14T17:38:36.242Z,39.00
2023-02-14T17:41:14.382Z,38.60
2023-02-14T17:43:41.201Z,39.70
2023-02-14T17:46:08.196Z,34.50
2023-02-14T17:48:34.793Z,34.00
2023-02-14T17:51:09.548Z,34.80
2023-02-14T17:53:36.407Z,34.10
2023-02-14T17:56:08.512Z,32.80
2023-02-14T17:58:35.965Z,36.40
2023-02-14T18:01:04.800Z,37.20
2023-02-14T18:03:31.343Z,37.10
2023-02-14T18:05:59.009Z,40.70
2023-02-14T18:08:29.658Z,41.30
2023-02-14T18:10:56.894Z,58.90
2023-02-14T18:13:24.738Z,61.70
2023-02-14T18:15:52.917Z,64.30
2023-02-14T18:18:20.056Z,56.80
2023-02-14T18:20:54.230Z,89.10
2023-02-14T18:23:21.786Z,77.60
2023-02-14T18:25:57.272Z,76.80
2023-02-14T18:28:26.020Z,60.90
2023-02-14T18:30:53.676Z,51.90
2023-02-14T18:33:21.343Z,47.90
2023-02-14T18:35:47.901Z,48.40
2023-02-14T18:38:14.758Z,54.50
2023-02-14T18:40:41.809Z,57.30
2023-02-14T18:43:08.443Z,57.60
2023-02-14T18:45:36.519Z,53.00
2023-02-14T18:48:04.324Z,48.50
2023-02-14T18:50:31.961Z,50.30
2023-02-14T18:52:58.497Z,49.60
2023-02-14T18:55:25.034Z,55.30
2023-02-14T18:57:51.813Z,48.90
2023-02-14T19:00:18.833Z,51.10
2023-02-14T19:02:45.326Z,49.00
2023-02-14T19:05:11.736Z,50.60
2023-02-14T19:07:38.462Z,49.30
2023-02-14T19:10:06.513Z,53.60
2023-02-14T19:12:36.364Z,53.40
2023-02-14T19:15:03.117Z,55.30
2023-02-14T19:17:29.748Z,55.70
2023-02-14T19:19:57.004Z,56.10
2023-02-14T19:22:23.756Z,55.30
2023-02-14T19:24:53.028Z,62.90
2023-02-14T19:27:19.705Z,69.10
2023-02-14T19:29:46.154Z,70.00
2023-02-14T19:32:12.971Z,70.10
2023-02-14T19:34:39.856Z,69.00
2023-02-14T19:37:06.399Z,64.10
2023-02-14T19:39:33.135Z,65.10
2023-02-14T19:42:00.579Z,59.90
2023-02-14T19:44:27.926Z,53.50
2023-02-14T19:46:54.629Z,50.30
2023-02-14T19:49:21.754Z,52.70
2023-02-14T19:51:50.123Z,50.30
2023-02-14T19:54:16.985Z,51.40
2023-02-14T19:56:45.381Z,48.50
2023-02-14T19:59:13.023Z,51.20
2023-02-14T20:01:43.125Z,51.10
2023-02-14T20:04:12.378Z,47.10
2023-02-14T20:06:39.322Z,45.40
2023-02-14T20:09:06.989Z,44.40
2023-02-14T20:11:45.702Z,43.30
2023-02-14T20:14:13.851Z,43.90
2023-02-14T20:16:40.961Z,43.20
2023-02-14T20:19:10.146Z,39.60
2023-02-14T20:21:36.992Z,46.50
2023-02-14T20:24:04.579Z,45.30
2023-02-14T20:26:33.356Z,42.20
2023-02-14T20:29:02.168Z,40.10
2023-02-14T20:31:29.163Z,40.60
2023-02-14T20:33:57.174Z,43.90
2023-02-14T20:36:24.638Z,53.80
2023-02-14T20:38:59.604Z,51.90
2023-02-14T20:41:27.523Z,49.10
2023-02-14T20:43:55.904Z,49.50
2023-02-14T20:46:23.242Z,48.50
2023-02-14T20:48:50.356Z,46.70
2023-02-14T20:51:21.181Z,43.50
2023-02-14T20:53:48.546Z,43.30
2023-02-14T20:56:16.122Z,41.90
2023-02-14T20:58:43.169Z,42.70
2023-02-14T21:01:11.368Z,45.40
2023-02-14T21:03:38.611Z,42.60
2023-02-14T21:06:07.544Z,45.00
2023-02-14T21:08:36.121Z,41.50
2023-02-14T21:11:04.696Z,43.40
2023-02-14T21:13:32.322Z,43.50
2023-02-14T21:16:07.360Z,47.90
2023-02-14T21:18:34.945Z,47.10
2023-02-14T21:21:06.903Z,43.20
2023-02-14T21:23:33.710Z,41.90
2023-02-14T21:26:00.489Z,43.20
2023-02-14T21:28:26.935Z,43.70
2023-02-14T21:31:05.403Z,46.70
2023-02-14T21:33:32.780Z,47.10
2023-02-14T21:36:10.604Z,48.30
2023-02-14T21:38:37.438Z,48.50
2023-02-14T21:41:09.872Z,48.20
2023-02-14T21:43:41.181Z,45.80
2023-02-14T21:46:13.749Z,46.60
2023-02-14T21:48:40.713Z,46.40
2023-02-14T21:51:07.351Z,44.40
2023-02-14T21:53:34.404Z,47.40
2023-02-14T21:56:09.495Z,43.60
2023-02-14T21:58:37.684Z,42.70
2023-02-14T22:01:07.841Z,44.30
2023-02-14T22:03:34.709Z,58.80
2023-02-14T22:06:06.143Z,82.90
2023-02-14T22:11:04.286Z,98.00
2023-02-14T22:13:30.965Z,105.80
2023-02-14T22:16:02.770Z,98.50
2023-02-14T22:18:29.860Z,104.10
2023-02-14T22:21:05.349Z,106.00
2023-02-14T22:23:33.735Z,96.60
2023-02-14T22:26:22.002Z,97.50
2023-02-14T22:28:49.893Z,101.20
2023-02-14T22:31:18.209Z,110.70
2023-02-14T22:33:45.930Z,105.60
2023-02-14T22:36:12.672Z,110.60
2023-02-14T22:38:39.908Z,109.10
2023-02-14T22:41:10.444Z,106.20
2023-02-14T22:43:38.099Z,81.00
2023-02-14T22:46:07.006Z,93.40
2023-02-14T22:48:35.394Z,89.80
2023-02-14T22:51:19.981Z,93.80
2023-02-14T22:53:47.463Z,98.50
2023-02-14T22:56:23.354Z,91.40
2023-02-14T22:58:57.165Z,95.70
2023-02-14T23:01:25.063Z,98.60
2023-02-14T23:03:56.817Z,92.60
2023-02-14T23:06:25.435Z,94.60
2023-02-14T23:08:52.544Z,96.10
2023-02-14T23:11:25.009Z,92.40
2023-02-14T23:13:51.856Z,86.90
2023-02-14T23:16:18.921Z,95.60
2023-02-14T23:18:45.375Z,93.20
2023-02-14T23:21:14.875Z,97.30
2023-02-14T23:23:41.481Z,93.60
2023-02-14T23:26:08.022Z,103.20
2023-02-14T23:28:34.751Z,100.90
2023-02-14T23:31:02.085Z,100.70
2023-02-14T23:33:28.799Z,99.70
2023-02-14T23:35:55.344Z,95.80
2023-02-14T23:38:21.783Z,93.50
2023-02-14T23:40:48.297Z,87.60
2023-02-14T23:43:14.793Z,87.60
2023-02-14T23:45:41.333Z,81.00
2023-02-14T23:48:08.014Z,80.60
2023-02-14T23:50:34.637Z,78.10
2023-02-14T23:53:01.246Z,75.40
2023-02-14T23:55:27.755Z,75.70
2023-02-14T23:57:54.298Z,75.40
